Lamoni, IA

3:37 PM CDT on July 24, 2014 (GMT -0500)
Lamoni Municipal (KLWD) Elev 1132 ft | 40.63 °N, 93.90 °W | Change Station

Current weather conditions updated 44 minutes ago

Clear
Clear
76 °F
Feels Like 76 °F
N
13
Wind Variable Wind from South
Gusts 23 mph

Today is forecast to be Cooler than yesterday.

Today
High -- | Low -- °F
--% Chance of Precip.
Yesterday
High -- | Low -- °F
Precip. -- in
6:05 AM 8:38 PM
Waning Crescent, 4% visible
Pressure 30.08 in
Visibility 10.0 miles
Clouds Clear
Dew Point 58 °F
Humidity 54%
Rainfall 0.00 in
Snow Depth Not available.
UV 10 out of 12
Pollen 5.70 out of 12
Air Quality Not available.
Flu Activity Not available.
METAR KLWD 241953Z AUTO 18011G20KT 10SM CLR 24/14 A3009 RMK AO2 SLP184 T02440144

More Conditions Fewer Conditions

Pressure 30.08 in
Visibility 10.0 miles
Clouds Clear
Dew Point 58 °F
Humidity 54%
Rainfall 0.00 in
Snow Depth Not available.
UV 10 out of 12
Pollen 5.70 out of 12
Air Quality Not available.
Flu Activity Not available.
METAR KLWD 241953Z AUTO 18011G20KT 10SM CLR 24/14 A3009 RMK AO2 SLP184 T02440144

More Conditions Fewer Conditions

10-Day Weather Forecast

Almanac

Astronomy

Jul. 24, 2014 Rise Set
Actual Time 6:05 AM CDT 8:38 PM CDT
Civil Twilight 5:33 AM CDT 9:09 PM CDT
Nautical Twilight 4:54 AM CDT 9:49 PM CDT
Astronomical Twilight 4:10 AM CDT 10:32 PM CDT
Moon 4:13 AM CDT 6:54 PM CDT
Length of Visible Light 15h 36m
Length of Day
14h 33m
Tomorrow will be 1m 47s shorter.
Waning Crescent, 4% of the Moon is Illuminated
Today
Waning Crescent
Jul 26
New
Aug 3
First Quarter
Aug 10
Full
Aug 17
Last Quarter

Today's Extremes

State Highs State Lows

Community

WunderPhotos

Upload Photos

1,737,123 photos uploaded!

Nearby

Snow Depth

Station Depth Elevation
No new snow has been reported.

Earthquake Activity

City Distance Mag. Time & Date
No recent earthquake activity has been reported nearby.
Minimum magnitude displayed is 2.5.

Coastal Water Temperatures

Place Temperature
No Stations Reporting

Nearby Weather Stations

Station Location Temp. Heat Index Dew Point Humidity Wind Precip. Elev Updated Type
MesoWest LINEVL , Lineville, IA 77 °F 75 °F - - North  at  - 0.00 in / hr 1098 ft 2:15 PM CDT MADIS
Bethany, Bethany, MO 81.9 °F 83 °F 63 °F 53% South  at  6.0 mph 0.00 in / hr 1017 ft 3:37 PM CDT Rapid Fire

Show More Stations Show Fewer Stations